createdAt,value
2018-09-17T00:01:31.475Z,11.10
2018-09-17T00:03:59.858Z,11.10
2018-09-17T00:06:28.094Z,11.00
2018-09-17T00:08:56.324Z,11.00
2018-09-17T00:11:24.544Z,11.00
2018-09-17T00:13:52.853Z,11.00
2018-09-17T00:16:21.075Z,11.00
2018-09-17T00:18:49.541Z,11.00
2018-09-17T00:21:17.827Z,11.00
2018-09-17T00:23:46.073Z,11.00
2018-09-17T00:26:14.304Z,11.00
2018-09-17T00:28:42.560Z,11.00
2018-09-17T00:31:10.765Z,10.90
2018-09-17T00:33:38.995Z,10.90
2018-09-17T00:36:07.221Z,10.90
2018-09-17T00:38:35.482Z,10.90
2018-09-17T00:41:03.691Z,10.80
2018-09-17T00:43:31.914Z,10.80
2018-09-17T00:46:00.108Z,10.80
2018-09-17T00:48:28.340Z,10.80
2018-09-17T00:50:56.548Z,10.70
2018-09-17T00:53:24.771Z,10.60
2018-09-17T00:55:52.988Z,10.60
2018-09-17T00:58:21.220Z,10.60
2018-09-17T01:00:49.444Z,10.60
2018-09-17T01:03:17.767Z,10.60
2018-09-17T01:05:45.981Z,10.50
2018-09-17T01:08:14.244Z,10.50
2018-09-17T01:10:42.480Z,10.50
2018-09-17T01:13:10.715Z,10.50
2018-09-17T01:15:38.961Z,10.50
2018-09-17T01:18:07.195Z,10.50
2018-09-17T01:20:35.406Z,10.60
2018-09-17T01:23:03.676Z,10.50
2018-09-17T01:25:31.924Z,10.50
2018-09-17T01:28:00.161Z,10.40
2018-09-17T01:30:28.429Z,10.30
2018-09-17T01:32:56.640Z,10.40
2018-09-17T01:35:24.867Z,10.40
2018-09-17T01:37:53.215Z,10.30
2018-09-17T01:40:21.470Z,10.20
2018-09-17T01:42:50.772Z,10.20
2018-09-17T01:45:18.986Z,10.20
2018-09-17T01:47:47.245Z,10.20
2018-09-17T01:50:15.495Z,10.10
2018-09-17T01:52:43.696Z,10.00
2018-09-17T01:55:11.941Z,10.00
2018-09-17T01:57:40.392Z,9.90
2018-09-17T02:00:08.672Z,9.80
2018-09-17T02:02:36.897Z,9.80
2018-09-17T02:05:05.128Z,9.80
2018-09-17T02:07:33.336Z,9.80
2018-09-17T02:10:01.581Z,9.80
2018-09-17T02:12:29.829Z,9.80
2018-09-17T02:14:58.069Z,9.80
2018-09-17T02:17:26.310Z,9.80
2018-09-17T02:19:54.532Z,9.80
2018-09-17T02:22:22.755Z,9.80
2018-09-17T02:24:51.036Z,9.80
2018-09-17T02:27:19.243Z,9.70
2018-09-17T02:29:47.481Z,9.70
2018-09-17T02:32:15.685Z,9.70
2018-09-17T02:34:44.116Z,9.80
2018-09-17T02:37:12.316Z,9.80
2018-09-17T02:39:40.668Z,9.80
2018-09-17T02:42:09.256Z,9.80
2018-09-17T02:44:37.840Z,9.80
2018-09-17T02:47:06.120Z,9.70
2018-09-17T02:49:34.331Z,9.70
2018-09-17T02:52:02.565Z,9.70
2018-09-17T02:54:30.856Z,9.70
2018-09-17T02:56:59.081Z,9.70
2018-09-17T02:59:27.293Z,9.70
2018-09-17T03:01:55.510Z,9.70
2018-09-17T03:04:23.765Z,9.60
2018-09-17T03:06:51.972Z,9.50
2018-09-17T03:09:20.225Z,9.50
2018-09-17T03:11:48.431Z,9.40
2018-09-17T03:14:16.663Z,9.40
2018-09-17T03:16:56.292Z,9.40
2018-09-17T03:19:24.557Z,9.30
2018-09-17T03:21:52.761Z,9.20
2018-09-17T03:24:21.010Z,9.20
2018-09-17T03:26:49.228Z,9.20
2018-09-17T03:29:17.440Z,9.10
2018-09-17T03:31:45.797Z,9.10
2018-09-17T03:34:14.045Z,9.00
2018-09-17T03:36:42.239Z,9.00
2018-09-17T03:39:10.445Z,9.00
2018-09-17T03:41:38.677Z,9.00
2018-09-17T03:44:06.948Z,9.00
2018-09-17T03:46:35.227Z,9.00
2018-09-17T03:49:03.504Z,8.90
2018-09-17T03:51:31.732Z,9.00
2018-09-17T03:53:59.925Z,9.00
2018-09-17T03:56:28.176Z,9.00
2018-09-17T03:58:56.399Z,9.00
2018-09-17T04:01:24.633Z,9.00
2018-09-17T04:03:52.845Z,9.00
2018-09-17T04:06:21.116Z,8.90
2018-09-17T04:08:49.332Z,8.90
2018-09-17T04:11:17.553Z,8.90
2018-09-17T04:13:45.786Z,8.90
2018-09-17T04:16:14.032Z,8.90
2018-09-17T04:18:42.232Z,8.90
2018-09-17T04:21:10.448Z,8.90
2018-09-17T04:23:39.164Z,8.90
2018-09-17T04:26:09.312Z,8.90
2018-09-17T04:28:38.050Z,8.90
2018-09-17T04:31:06.472Z,8.80
2018-09-17T04:33:36.647Z,8.80
2018-09-17T04:36:04.945Z,8.80
2018-09-17T04:38:34.295Z,8.80
2018-09-17T04:41:02.692Z,8.80
2018-09-17T04:43:34.208Z,8.70
2018-09-17T04:46:03.743Z,8.70
2018-09-17T04:48:31.962Z,8.60
2018-09-17T04:51:00.200Z,8.60
2018-09-17T04:53:28.411Z,8.60
2018-09-17T04:55:56.660Z,8.70
2018-09-17T04:58:24.893Z,8.60
2018-09-17T05:00:53.132Z,8.60
2018-09-17T05:03:21.332Z,8.60
2018-09-17T05:05:49.577Z,8.60
2018-09-17T05:08:17.830Z,8.60
2018-09-17T05:10:46.092Z,8.60
2018-09-17T05:13:14.394Z,8.70
2018-09-17T05:15:42.589Z,8.70
2018-09-17T05:18:10.797Z,8.70
2018-09-17T05:20:39.078Z,8.70
2018-09-17T05:23:07.260Z,8.70
2018-09-17T05:25:35.498Z,8.80
2018-09-17T05:28:03.829Z,8.80
2018-09-17T05:30:32.061Z,8.90
2018-09-17T05:33:00.320Z,8.90
2018-09-17T05:35:28.636Z,9.00
2018-09-17T05:37:56.849Z,9.00
2018-09-17T05:40:25.137Z,9.10
2018-09-17T05:42:53.371Z,9.10
2018-09-17T05:45:21.612Z,9.20
2018-09-17T05:47:49.824Z,9.20
2018-09-17T05:50:18.063Z,9.30
2018-09-17T05:52:46.340Z,9.40
2018-09-17T05:55:14.553Z,9.60
2018-09-17T05:57:42.774Z,9.70
2018-09-17T06:00:10.971Z,9.80
2018-09-17T06:02:39.220Z,9.80
2018-09-17T06:05:07.464Z,9.90
2018-09-17T06:07:35.705Z,10.00
2018-09-17T06:10:08.196Z,10.10
2018-09-17T06:12:36.429Z,10.20
2018-09-17T06:15:04.669Z,10.30
2018-09-17T06:17:33.002Z,10.40
2018-09-17T06:20:01.159Z,10.50
2018-09-17T06:22:29.388Z,10.60
2018-09-17T06:24:57.614Z,10.80
2018-09-17T06:27:25.988Z,11.00
2018-09-17T06:29:54.236Z,11.20
2018-09-17T06:32:22.487Z,11.20
2018-09-17T06:34:50.693Z,11.40
2018-09-17T06:37:18.938Z,11.50
2018-09-17T06:39:47.144Z,11.70
2018-09-17T06:42:15.375Z,11.80
2018-09-17T06:44:43.613Z,11.90
2018-09-17T06:47:11.965Z,12.00
2018-09-17T06:49:40.231Z,12.20
2018-09-17T06:52:08.489Z,12.30
2018-09-17T06:54:36.696Z,12.40
2018-09-17T06:57:04.994Z,12.60
2018-09-17T06:59:33.331Z,12.70
2018-09-17T07:02:02.033Z,12.90
2018-09-17T07:04:30.248Z,13.10
2018-09-17T07:06:58.736Z,13.20
2018-09-17T07:09:26.981Z,13.40
2018-09-17T07:11:55.240Z,13.70
2018-09-17T07:14:23.481Z,13.90
2018-09-17T07:16:51.716Z,14.20
2018-09-17T07:19:19.943Z,14.60
2018-09-17T07:21:48.228Z,15.60
2018-09-17T07:24:16.460Z,18.80
2018-09-17T07:26:44.696Z,22.70
2018-09-17T07:29:12.917Z,25.90
2018-09-17T07:31:41.147Z,28.20
2018-09-17T07:34:09.358Z,29.70
2018-09-17T07:36:37.667Z,30.90
2018-09-17T07:39:08.519Z,32.10
2018-09-17T07:41:36.781Z,32.20
2018-09-17T07:44:05.048Z,32.90
2018-09-17T07:46:33.308Z,33.40
2018-09-17T07:49:01.517Z,33.60
2018-09-17T07:51:29.733Z,34.10
2018-09-17T07:53:57.973Z,34.50
2018-09-17T07:56:26.189Z,34.60
2018-09-17T07:58:54.471Z,35.00
2018-09-17T08:01:22.684Z,34.20
2018-09-17T08:03:51.150Z,34.50
2018-09-17T08:06:19.363Z,34.50
2018-09-17T08:08:47.591Z,34.00
2018-09-17T08:11:15.800Z,33.50
2018-09-17T08:13:44.061Z,34.10
2018-09-17T08:16:12.271Z,34.70
2018-09-17T08:18:40.493Z,35.00
2018-09-17T08:21:08.732Z,35.20
2018-09-17T08:23:36.993Z,35.30
2018-09-17T08:26:05.215Z,35.10
2018-09-17T08:28:33.460Z,35.10
2018-09-17T08:31:01.667Z,35.20
2018-09-17T08:33:29.897Z,34.90
2018-09-17T08:35:58.137Z,34.60
2018-09-17T08:38:26.380Z,34.20
2018-09-17T08:40:54.639Z,34.30
2018-09-17T08:43:22.876Z,34.50
2018-09-17T08:45:51.105Z,34.50
2018-09-17T08:48:19.341Z,34.70
2018-09-17T08:50:47.585Z,35.00
2018-09-17T08:53:15.814Z,35.30
2018-09-17T08:55:44.984Z,35.50
2018-09-17T08:58:18.684Z,35.40
2018-09-17T09:00:52.200Z,35.10
2018-09-17T09:03:25.896Z,34.70
2018-09-17T09:05:59.580Z,34.20
2018-09-17T09:08:27.814Z,33.80
2018-09-17T09:11:01.529Z,32.40
2018-09-17T09:13:38.896Z,32.20
2018-09-17T09:16:08.001Z,32.20
2018-09-17T09:18:36.232Z,32.00
2018-09-17T09:21:04.464Z,31.60
2018-09-17T09:23:32.684Z,31.30
2018-09-17T09:26:00.969Z,31.70
2018-09-17T09:28:29.284Z,32.10
2018-09-17T09:30:57.561Z,32.00
2018-09-17T09:33:25.848Z,31.90
2018-09-17T09:35:54.056Z,31.70
2018-09-17T09:38:22.276Z,31.50
2018-09-17T09:40:50.551Z,30.70
2018-09-17T09:43:18.787Z,30.10
2018-09-17T09:45:47.050Z,29.50
2018-09-17T09:48:15.276Z,29.10
2018-09-17T09:50:44.236Z,29.00
2018-09-17T09:53:12.444Z,29.30
2018-09-17T09:55:40.683Z,29.40
2018-09-17T09:58:08.903Z,29.40
2018-09-17T10:00:42.492Z,29.10
2018-09-17T10:03:17.258Z,28.80
2018-09-17T10:05:46.028Z,28.50
2018-09-17T10:08:14.240Z,28.50
2018-09-17T10:10:47.768Z,28.60
2018-09-17T10:13:21.327Z,28.50
2018-09-17T10:15:54.211Z,28.50
2018-09-17T10:18:27.773Z,28.50
2018-09-17T10:20:56.035Z,28.50
2018-09-17T10:23:24.241Z,28.60
2018-09-17T10:25:52.525Z,28.50
2018-09-17T10:28:20.781Z,28.40
2018-09-17T10:30:49.161Z,28.30
2018-09-17T10:33:17.402Z,28.30
2018-09-17T10:35:45.632Z,28.20
2018-09-17T10:38:13.844Z,28.30
2018-09-17T10:40:42.152Z,28.50
2018-09-17T10:43:10.401Z,28.30
2018-09-17T10:45:38.628Z,28.10
2018-09-17T10:48:06.887Z,28.20
2018-09-17T10:50:35.096Z,28.30
2018-09-17T10:53:03.321Z,28.50
2018-09-17T10:55:31.589Z,28.70
2018-09-17T10:57:59.824Z,28.80
2018-09-17T11:00:28.047Z,29.00
2018-09-17T11:02:56.327Z,29.30
2018-09-17T11:05:24.528Z,29.50
2018-09-17T11:07:52.760Z,29.50
2018-09-17T11:10:20.996Z,29.40
2018-09-17T11:12:49.244Z,29.30
2018-09-17T11:15:17.592Z,29.30
2018-09-17T11:17:45.875Z,29.40
2018-09-17T11:20:14.125Z,29.30
2018-09-17T11:22:42.367Z,29.40
2018-09-17T11:25:10.628Z,29.50
2018-09-17T11:27:38.872Z,29.40
2018-09-17T11:30:07.081Z,29.30
2018-09-17T11:32:35.315Z,29.20
2018-09-17T11:35:03.538Z,29.30
2018-09-17T11:37:31.782Z,29.40
2018-09-17T11:40:00.008Z,29.40
2018-09-17T11:42:28.237Z,29.40
2018-09-17T11:44:56.488Z,29.40
2018-09-17T11:47:24.712Z,29.40
2018-09-17T11:49:53.161Z,29.50
2018-09-17T11:52:21.396Z,29.50
2018-09-17T11:54:49.688Z,29.60
2018-09-17T11:57:17.945Z,29.60
2018-09-17T11:59:46.203Z,29.60
2018-09-17T12:02:19.940Z,29.60
2018-09-17T12:04:53.662Z,29.60
2018-09-17T12:07:27.477Z,29.60
2018-09-17T12:09:55.711Z,29.40
2018-09-17T12:12:23.984Z,29.30
2018-09-17T12:14:52.237Z,29.20
2018-09-17T12:17:20.517Z,29.20
2018-09-17T12:19:48.836Z,29.20
2018-09-17T12:22:17.060Z,29.40
2018-09-17T12:24:45.308Z,29.60
2018-09-17T12:27:13.524Z,29.80
2018-09-17T12:29:41.789Z,29.90
2018-09-17T12:32:10.059Z,29.90
2018-09-17T12:34:38.280Z,29.60
2018-09-17T12:37:06.801Z,29.30
2018-09-17T12:39:35.053Z,29.10
2018-09-17T12:42:03.288Z,29.10
2018-09-17T12:44:31.532Z,29.20
2018-09-17T12:46:59.763Z,29.30
2018-09-17T12:49:27.984Z,29.40
2018-09-17T12:51:56.207Z,29.40
2018-09-17T12:54:24.447Z,29.40
2018-09-17T12:56:52.795Z,29.50
2018-09-17T12:59:21.044Z,29.50
2018-09-17T13:01:49.316Z,29.50
2018-09-17T13:04:17.589Z,29.40
2018-09-17T13:06:45.824Z,29.20
2018-09-17T13:09:14.096Z,29.10
2018-09-17T13:11:42.359Z,29.10
2018-09-17T13:14:10.591Z,29.00
2018-09-17T13:16:39.732Z,29.10
2018-09-17T13:19:10.505Z,29.10
2018-09-17T13:21:38.733Z,29.10
2018-09-17T13:24:07.468Z,29.10
2018-09-17T13:26:35.908Z,29.10
2018-09-17T13:29:04.304Z,29.00
2018-09-17T13:31:32.725Z,28.90
2018-09-17T13:34:00.945Z,28.80
2018-09-17T13:36:29.200Z,28.60
2018-09-17T13:38:57.721Z,28.50
2018-09-17T13:41:25.959Z,28.30
2018-09-17T13:43:54.168Z,28.10
2018-09-17T13:46:22.448Z,28.10
2018-09-17T13:48:50.711Z,28.00
2018-09-17T13:51:18.986Z,28.10
2018-09-17T13:53:47.194Z,28.10
2018-09-17T13:56:15.523Z,28.10
2018-09-17T13:58:43.790Z,28.10
2018-09-17T14:01:12.072Z,28.10
2018-09-17T14:03:40.312Z,28.00
2018-09-17T14:06:08.536Z,28.00
2018-09-17T14:08:36.761Z,28.10
2018-09-17T14:11:05.057Z,28.20
2018-09-17T14:13:33.273Z,28.30
2018-09-17T14:16:01.551Z,28.50
2018-09-17T14:18:30.324Z,28.60
2018-09-17T14:20:58.579Z,28.60
2018-09-17T14:23:26.826Z,28.50
2018-09-17T14:25:55.170Z,28.30
2018-09-17T14:28:23.390Z,28.00
2018-09-17T14:30:51.672Z,27.80
2018-09-17T14:33:25.430Z,27.60
2018-09-17T14:35:53.664Z,27.40
2018-09-17T14:38:21.978Z,27.30
2018-09-17T14:40:50.234Z,27.20
2018-09-17T14:43:18.524Z,27.30
2018-09-17T14:45:46.797Z,27.40
2018-09-17T14:48:15.048Z,27.50
2018-09-17T14:50:43.347Z,27.60
2018-09-17T14:53:11.621Z,27.60
2018-09-17T14:55:39.890Z,27.60
2018-09-17T14:58:08.267Z,27.50
2018-09-17T15:00:36.496Z,27.30
2018-09-17T15:03:04.727Z,27.30
2018-09-17T15:05:32.979Z,27.30
2018-09-17T15:08:01.329Z,27.40
2018-09-17T15:10:29.526Z,27.30
2018-09-17T15:12:58.105Z,27.20
2018-09-17T15:15:26.508Z,27.10
2018-09-17T15:17:54.723Z,27.00
2018-09-17T15:20:23.091Z,27.00
2018-09-17T15:22:51.224Z,26.90
2018-09-17T15:25:20.489Z,26.90
2018-09-17T15:27:48.871Z,26.80
2018-09-17T15:30:17.219Z,26.80
2018-09-17T15:32:45.482Z,26.70
2018-09-17T15:35:13.918Z,26.70
2018-09-17T15:37:42.177Z,26.60
2018-09-17T15:40:10.538Z,26.50
2018-09-17T15:42:38.710Z,26.50
2018-09-17T15:45:06.932Z,26.40
2018-09-17T15:47:35.192Z,26.30
2018-09-17T15:50:03.469Z,26.20
2018-09-17T15:52:31.688Z,26.10
2018-09-17T15:54:59.892Z,26.00
2018-09-17T15:57:28.185Z,26.00
2018-09-17T15:59:56.414Z,25.90
2018-09-17T16:02:24.630Z,25.80
2018-09-17T16:04:52.831Z,25.60
2018-09-17T16:07:21.061Z,25.50
2018-09-17T16:09:49.327Z,25.30
2018-09-17T16:12:17.596Z,25.10
2018-09-17T16:14:45.822Z,24.90
2018-09-17T16:17:14.085Z,24.70
2018-09-17T16:19:42.333Z,24.60
2018-09-17T16:22:10.585Z,24.40
2018-09-17T16:24:38.852Z,24.20
2018-09-17T16:27:07.232Z,24.00
2018-09-17T16:29:35.452Z,23.80
2018-09-17T16:32:04.428Z,23.60
2018-09-17T16:34:32.648Z,23.40
2018-09-17T16:37:00.884Z,23.20
2018-09-17T16:39:29.136Z,23.00
2018-09-17T16:41:57.404Z,22.80
2018-09-17T16:44:25.655Z,22.60
2018-09-17T16:46:53.865Z,22.50
2018-09-17T16:49:22.085Z,22.30
2018-09-17T16:51:50.336Z,22.10
2018-09-17T16:54:19.189Z,22.00
2018-09-17T16:56:47.417Z,21.80
2018-09-17T16:59:15.754Z,21.60
2018-09-17T17:01:43.916Z,21.40
2018-09-17T17:04:12.321Z,21.20
2018-09-17T17:06:40.543Z,21.10
2018-09-17T17:09:09.788Z,20.90
2018-09-17T17:11:38.025Z,20.70
2018-09-17T17:14:06.292Z,20.60
2018-09-17T17:16:34.538Z,20.30
2018-09-17T17:19:02.899Z,20.20
2018-09-17T17:21:31.066Z,20.00
2018-09-17T17:23:59.978Z,19.90
2018-09-17T17:26:28.233Z,19.70
2018-09-17T17:28:56.480Z,19.50
2018-09-17T17:31:24.689Z,19.40
2018-09-17T17:33:53.146Z,19.30
2018-09-17T17:36:21.410Z,19.10
2018-09-17T17:38:49.647Z,19.00
2018-09-17T17:41:17.985Z,18.90
2018-09-17T17:43:46.436Z,18.80
2018-09-17T17:46:14.757Z,18.70
2018-09-17T17:48:42.901Z,18.60
2018-09-17T17:51:11.121Z,18.60
2018-09-17T17:53:39.335Z,18.50
2018-09-17T17:56:07.585Z,18.30
2018-09-17T17:58:35.864Z,18.20
2018-09-17T18:01:04.223Z,18.00
2018-09-17T18:03:32.420Z,17.90
2018-09-17T18:06:00.616Z,17.80
2018-09-17T18:08:28.876Z,17.70
2018-09-17T18:10:57.088Z,17.60
2018-09-17T18:13:25.345Z,17.50
2018-09-17T18:15:54.232Z,17.40
2018-09-17T18:18:22.496Z,17.30
2018-09-17T18:20:50.726Z,17.20
2018-09-17T18:23:18.976Z,17.20
2018-09-17T18:25:47.340Z,17.10
2018-09-17T18:28:15.612Z,17.00
2018-09-17T18:30:43.865Z,16.90
2018-09-17T18:33:12.095Z,16.80
2018-09-17T18:35:40.343Z,16.80
2018-09-17T18:38:08.586Z,16.70
2018-09-17T18:40:36.855Z,16.60
2018-09-17T18:43:05.063Z,16.50
2018-09-17T18:45:33.312Z,16.40
2018-09-17T18:48:01.567Z,16.30
2018-09-17T18:50:29.791Z,16.30
2018-09-17T18:52:58.028Z,16.20
2018-09-17T18:55:26.264Z,16.20
2018-09-17T18:57:54.484Z,16.10
2018-09-17T19:00:22.736Z,16.10
2018-09-17T19:02:51.019Z,16.00
2018-09-17T19:05:19.261Z,15.90
2018-09-17T19:07:47.496Z,15.90
2018-09-17T19:10:15.944Z,15.80
2018-09-17T19:12:44.258Z,15.70
2018-09-17T19:15:17.983Z,15.60
2018-09-17T19:17:46.211Z,15.60
2018-09-17T19:20:14.525Z,15.60
2018-09-17T19:22:48.156Z,15.50
2018-09-17T19:25:16.533Z,15.50
2018-09-17T19:27:50.090Z,15.40
2018-09-17T19:30:18.419Z,15.40
2018-09-17T19:32:46.633Z,15.30
2018-09-17T19:35:14.902Z,15.30
2018-09-17T19:37:48.565Z,15.20
2018-09-17T19:40:20.362Z,15.20
2018-09-17T19:42:49.251Z,15.10
2018-09-17T19:45:22.978Z,15.10
2018-09-17T19:47:52.145Z,15.00
2018-09-17T19:50:25.945Z,15.00
2018-09-17T19:52:54.108Z,15.00
2018-09-17T19:55:22.361Z,15.00
2018-09-17T19:57:56.151Z,14.90
2018-09-17T20:00:24.412Z,14.90
2018-09-17T20:02:52.623Z,14.80
2018-09-17T20:05:26.184Z,14.80
2018-09-17T20:07:54.420Z,14.80
2018-09-17T20:10:22.677Z,14.70
2018-09-17T20:12:51.717Z,14.70
2018-09-17T20:15:19.980Z,14.70
2018-09-17T20:17:48.193Z,14.70
2018-09-17T20:20:16.411Z,14.60
2018-09-17T20:22:44.635Z,14.60
2018-09-17T20:25:12.917Z,14.60
2018-09-17T20:27:41.207Z,14.50
2018-09-17T20:30:09.506Z,14.50
2018-09-17T20:32:37.748Z,14.40
2018-09-17T20:35:06.033Z,14.40
2018-09-17T20:37:34.276Z,14.30
2018-09-17T20:40:02.496Z,14.30
2018-09-17T20:42:30.728Z,14.30
2018-09-17T20:44:58.954Z,14.20
2018-09-17T20:47:27.256Z,14.20
2018-09-17T20:49:55.535Z,14.10
2018-09-17T20:52:23.741Z,14.10
2018-09-17T20:54:52.010Z,14.10
2018-09-17T20:57:20.238Z,14.10
2018-09-17T20:59:48.468Z,14.00
2018-09-17T21:02:16.756Z,14.00
2018-09-17T21:04:44.983Z,14.00
2018-09-17T21:07:13.223Z,13.90
2018-09-17T21:09:41.508Z,13.90
2018-09-17T21:12:09.791Z,13.80
2018-09-17T21:14:38.042Z,13.80
2018-09-17T21:17:06.293Z,13.80
2018-09-17T21:19:34.538Z,13.70
2018-09-17T21:22:02.768Z,13.70
2018-09-17T21:24:31.058Z,13.60
2018-09-17T21:26:59.316Z,13.60
2018-09-17T21:29:27.561Z,13.60
2018-09-17T21:31:55.788Z,13.50
2018-09-17T21:34:25.028Z,13.50
2018-09-17T21:36:53.342Z,13.40
2018-09-17T21:39:21.512Z,13.40
2018-09-17T21:41:49.756Z,13.40
2018-09-17T21:44:17.965Z,13.30
2018-09-17T21:46:46.218Z,13.30
2018-09-17T21:49:14.515Z,13.30
2018-09-17T21:51:42.763Z,13.20
2018-09-17T21:54:10.978Z,13.20
2018-09-17T21:56:39.217Z,13.20
2018-09-17T21:59:07.707Z,13.20
2018-09-17T22:01:35.928Z,13.20
2018-09-17T22:04:04.253Z,13.20
2018-09-17T22:06:32.501Z,13.20
2018-09-17T22:09:00.708Z,13.10
2018-09-17T22:11:28.947Z,13.10
2018-09-17T22:13:57.348Z,13.10
2018-09-17T22:16:25.813Z,13.30
2018-09-17T22:18:54.047Z,13.20
2018-09-17T22:21:22.298Z,13.20
2018-09-17T22:23:50.532Z,13.20
2018-09-17T22:26:18.824Z,13.20
2018-09-17T22:28:47.069Z,13.20
2018-09-17T22:31:15.294Z,13.10
2018-09-17T22:33:43.537Z,13.10
2018-09-17T22:36:11.752Z,13.00
2018-09-17T22:38:39.980Z,13.00
2018-09-17T22:41:08.240Z,13.00
2018-09-17T22:43:36.479Z,12.90
2018-09-17T22:46:04.692Z,12.90
2018-09-17T22:48:32.924Z,12.90
2018-09-17T22:51:01.178Z,12.80
2018-09-17T22:53:29.425Z,12.80
2018-09-17T22:55:57.676Z,12.70
2018-09-17T22:58:25.909Z,12.70
2018-09-17T23:00:54.113Z,12.60
2018-09-17T23:03:22.348Z,12.50
2018-09-17T23:05:50.595Z,12.50
2018-09-17T23:08:18.842Z,12.50
2018-09-17T23:10:47.085Z,12.40
2018-09-17T23:13:15.398Z,12.40
2018-09-17T23:15:43.720Z,12.40
2018-09-17T23:18:11.967Z,12.40
2018-09-17T23:20:40.183Z,12.30
2018-09-17T23:23:08.456Z,12.30
2018-09-17T23:25:36.680Z,12.20
2018-09-17T23:28:04.976Z,12.20
2018-09-17T23:30:33.265Z,12.20
2018-09-17T23:33:01.521Z,12.20
2018-09-17T23:35:29.755Z,12.30
2018-09-17T23:37:58.009Z,12.20
2018-09-17T23:40:26.296Z,12.10
2018-09-17T23:42:54.716Z,12.10
2018-09-17T23:45:22.928Z,12.10
2018-09-17T23:47:51.189Z,12.10
2018-09-17T23:50:19.392Z,12.00
2018-09-17T23:52:47.639Z,12.00
2018-09-17T23:55:15.835Z,12.00
2018-09-17T23:57:44.102Z,12.00
